Time;durP1;ratioP1;P1;durP2;ratioP2;P2;SDS_P1;SDS_P2;PMS_P1;PMS_P2;Temp;Humidity;BMP_temperature;BMP_pressure;BME280_temperature;BME280_humidity;BME280_pressure;Samples;Min_cycle;Max_cycle;Signal;HPM_P1;HPM_P2
2023/09/15 00:00:56;;;;;;;15.95;9.55;;;19.60;99.90;;;;;;5007376;28;20041;-58
2023/09/15 00:04:04;;;;;;;14.55;10.38;;;19.70;99.90;;;;;;5012563;28;20045;-57
2023/09/15 00:07:08;;;;;;;15.82;10.05;;;19.80;99.90;;;;;;5012378;28;20045;-56
2023/09/15 00:10:14;;;;;;;14.65;10.48;;;19.80;99.90;;;;;;5009427;28;20045;-57
2023/09/15 00:13:19;;;;;;;18.00;10.73;;;19.80;99.90;;;;;;5012172;28;20037;-56
2023/09/15 00:16:23;;;;;;;16.08;10.60;;;19.80;99.90;;;;;;5012318;28;20060;-56
2023/09/15 00:19:27;;;;;;;16.40;11.48;;;19.80;99.90;;;;;;5011379;28;20408;-56
2023/09/15 00:22:31;;;;;;;13.38;10.50;;;19.80;99.90;;;;;;5012400;28;20040;-55
2023/09/15 00:25:35;;;;;;;14.32;9.40;;;19.80;99.90;;;;;;5010234;28;20535;-53
2023/09/15 00:28:39;;;;;;;14.63;9.38;;;19.90;99.90;;;;;;5012270;28;20404;-57
2023/09/15 00:31:43;;;;;;;16.92;10.38;;;19.90;99.90;;;;;;5012485;28;20057;-53
2023/09/15 00:34:47;;;;;;;15.80;10.68;;;19.90;99.90;;;;;;5009096;28;20396;-54
2023/09/15 00:37:54;;;;;;;16.13;10.63;;;19.90;99.90;;;;;;5012485;28;20041;-56
2023/09/15 00:40:59;;;;;;;14.13;10.90;;;19.90;99.90;;;;;;5012238;28;20041;-54
2023/09/15 00:44:03;;;;;;;15.65;9.90;;;19.90;99.90;;;;;;5007001;28;20053;-57
2023/09/15 00:47:07;;;;;;;16.45;11.35;;;19.90;99.90;;;;;;5011093;28;20057;-56
2023/09/15 00:50:16;;;;;;;19.27;9.65;;;19.80;99.90;;;;;;5012075;28;20044;-54
2023/09/15 00:53:21;;;;;;;17.30;10.68;;;19.80;99.90;;;;;;5003665;28;20422;-56
2023/09/15 00:56:25;;;;;;;19.48;11.13;;;19.80;99.90;;;;;;5011865;28;20056;-56
2023/09/15 00:59:29;;;;;;;19.25;11.70;;;19.70;99.90;;;;;;5011830;28;20049;-53
2023/09/15 01:02:33;;;;;;;13.82;10.05;;;19.60;99.90;;;;;;5011413;28;20049;-53
2023/09/15 01:05:39;;;;;;;12.18;9.80;;;19.50;99.90;;;;;;5011634;28;20048;-53
2023/09/15 01:08:47;;;;;;;12.60;9.57;;;19.50;99.90;;;;;;5006890;28;20033;-54
2023/09/15 01:11:52;;;;;;;12.63;8.75;;;19.60;99.90;;;;;;5004586;28;20053;-57
2023/09/15 01:14:57;;;;;;;13.63;10.43;;;19.50;99.90;;;;;;5011182;28;20319;-56
2023/09/15 01:18:08;;;;;;;15.98;10.38;;;19.50;99.90;;;;;;5005074;28;20045;-58
2023/09/15 01:21:31;;;;;;;16.85;10.93;;;19.50;99.90;;;;;;5007465;28;20041;-57
2023/09/15 01:25:00;;;;;;;15.93;11.13;;;19.60;99.90;;;;;;5011033;28;20037;-54
2023/09/15 01:28:13;;;;;;;16.17;11.38;;;19.60;99.90;;;;;;5008382;28;20042;-54
2023/09/15 01:31:18;;;;;;;17.70;12.00;;;19.40;99.90;;;;;;5011416;28;20033;-55
2023/09/15 01:34:21;;;;;;;18.92;11.85;;;19.20;99.90;;;;;;5011057;28;20060;-57
2023/09/15 01:37:26;;;;;;;16.52;11.60;;;19.00;99.90;;;;;;5005543;28;20049;-53
2023/09/15 01:40:31;;;;;;;18.33;12.00;;;18.90;99.90;;;;;;5011299;28;20045;-56
2023/09/15 01:43:35;;;;;;;18.05;12.07;;;18.90;99.90;;;;;;5010945;28;20045;-53
2023/09/15 01:46:39;;;;;;;17.27;12.50;;;19.00;99.90;;;;;;5010089;28;20033;-54
2023/09/15 01:49:43;;;;;;;18.30;12.52;;;19.00;99.90;;;;;;5011388;28;20041;-53
2023/09/15 01:52:48;;;;;;;24.30;15.75;;;19.10;99.90;;;;;;5008259;28;20501;-53
2023/09/15 01:55:53;;;;;;;18.48;13.88;;;18.90;99.90;;;;;;5005120;28;20048;-55
2023/09/15 01:58:56;;;;;;;22.35;14.30;;;18.80;99.90;;;;;;5010235;28;20049;-53
2023/09/15 02:02:01;;;;;;;21.33;15.25;;;18.90;99.90;;;;;;5009687;28;20057;-53
2023/09/15 02:05:05;;;;;;;22.98;15.38;;;18.90;99.90;;;;;;5010787;28;20037;-57
2023/09/15 02:08:09;;;;;;;27.25;15.40;;;18.80;99.90;;;;;;5010863;28;20044;-58
2023/09/15 02:11:13;;;;;;;27.65;17.17;;;18.80;99.90;;;;;;5006853;28;20045;-59
2023/09/15 02:14:17;;;;;;;27.45;17.90;;;18.90;99.90;;;;;;5009769;28;20041;-54
2023/09/15 02:17:21;;;;;;;23.35;18.67;;;19.00;99.90;;;;;;5010782;28;20049;-59
2023/09/15 02:20:25;;;;;;;25.38;19.30;;;18.90;99.90;;;;;;5010021;28;20241;-56
2023/09/15 02:23:29;;;;;;;25.10;17.67;;;18.80;99.90;;;;;;5009648;28;20053;-57
2023/09/15 02:26:33;;;;;;;25.73;19.17;;;18.80;99.90;;;;;;5014498;28;20053;-56
2023/09/15 02:29:38;;;;;;;27.65;19.63;;;18.80;99.90;;;;;;5011311;28;20045;-53
2023/09/15 02:32:44;;;;;;;26.88;18.85;;;18.90;99.90;;;;;;5007149;28;20037;-54
2023/09/15 02:35:48;;;;;;;30.35;19.80;;;18.90;99.90;;;;;;5014521;28;20041;-56
2023/09/15 02:38:54;;;;;;;30.65;19.17;;;18.90;99.90;;;;;;5013781;28;20045;-56
2023/09/15 02:41:58;;;;;;;26.25;18.73;;;18.90;99.90;;;;;;5008419;28;20057;-57
2023/09/15 02:45:03;;;;;;;23.75;17.77;;;18.90;99.90;;;;;;5013244;28;20045;-54
2023/09/15 02:48:07;;;;;;;22.85;16.38;;;18.90;99.90;;;;;;5008852;28;20045;-53
2023/09/15 02:51:11;;;;;;;21.23;13.23;;;18.90;99.90;;;;;;5021174;28;20500;-53
2023/09/15 02:54:16;;;;;;;18.13;13.00;;;19.00;99.90;;;;;;5012509;28;20048;-57
2023/09/15 02:57:20;;;;;;;16.67;12.48;;;19.20;99.90;;;;;;5005467;28;20053;-56
2023/09/15 03:00:24;;;;;;;27.05;16.33;;;19.30;99.90;;;;;;5013340;28;20065;-57
2023/09/15 03:03:29;;;;;;;26.08;16.65;;;19.10;99.90;;;;;;5012643;28;20113;-53
2023/09/15 03:06:33;;;;;;;23.52;16.90;;;18.80;99.90;;;;;;5012300;28;20121;-54
2023/09/15 03:09:37;;;;;;;25.73;16.95;;;18.80;99.90;;;;;;5013159;28;20037;-58
2023/09/15 03:12:41;;;;;;;24.48;17.23;;;18.80;99.90;;;;;;5013129;28;20037;-56
2023/09/15 03:15:45;;;;;;;26.13;17.13;;;18.90;99.90;;;;;;5005718;28;20041;-56
2023/09/15 03:18:49;;;;;;;26.83;17.15;;;19.00;99.90;;;;;;5013132;28;20543;-53
2023/09/15 03:21:56;;;;;;;25.20;16.65;;;19.00;99.90;;;;;;5009467;28;20045;-53
2023/09/15 03:25:00;;;;;;;24.85;16.70;;;19.10;99.90;;;;;;5012521;28;20049;-53
2023/09/15 03:28:04;;;;;;;24.00;17.15;;;19.10;99.90;;;;;;5013006;28;20049;-56
2023/09/15 03:31:08;;;;;;;27.20;16.90;;;19.10;99.90;;;;;;5008771;28;20523;-53
2023/09/15 03:34:12;;;;;;;30.63;18.20;;;19.10;99.90;;;;;;5011653;28;20057;-53
2023/09/15 03:37:16;;;;;;;28.50;18.58;;;19.00;99.90;;;;;;5012603;28;20052;-57
2023/09/15 03:40:22;;;;;;;26.35;16.65;;;18.90;99.90;;;;;;5012052;28;20405;-56
2023/09/15 03:43:26;;;;;;;24.35;17.60;;;18.60;99.90;;;;;;5012217;28;20060;-56
2023/09/15 03:46:32;;;;;;;28.65;17.77;;;18.70;99.90;;;;;;5012202;28;20072;-55
2023/09/15 03:49:36;;;;;;;31.20;19.00;;;18.70;99.90;;;;;;5011963;28;20094;-53
2023/09/15 03:52:41;;;;;;;27.27;18.23;;;18.70;99.90;;;;;;5012298;28;20056;-59
2023/09/15 03:55:45;;;;;;;24.02;18.05;;;18.70;99.90;;;;;;5010002;28;20045;-55
2023/09/15 03:58:49;;;;;;;28.98;18.33;;;18.80;99.90;;;;;;5016767;28;20659;-53
2023/09/15 04:01:54;;;;;;;22.58;17.40;;;18.80;99.90;;;;;;5013076;28;20552;-53
2023/09/15 04:04:57;;;;;;;24.80;17.40;;;18.90;99.90;;;;;;5011149;28;20417;-54
2023/09/15 04:08:02;;;;;;;26.75;17.85;;;19.00;99.90;;;;;;5013041;28;20049;-54
2023/09/15 04:11:07;;;;;;;27.70;17.50;;;19.00;99.90;;;;;;5012020;28;20041;-56
2023/09/15 04:14:11;;;;;;;22.85;16.92;;;19.00;99.90;;;;;;5007358;28;20524;-53
2023/09/15 04:17:15;;;;;;;20.10;16.40;;;19.00;99.90;;;;;;5012813;28;20057;-53
2023/09/15 04:20:19;;;;;;;23.33;15.65;;;19.00;99.90;;;;;;5011845;28;20049;-53
2023/09/15 04:23:23;;;;;;;23.55;15.45;;;19.00;99.90;;;;;;5010038;28;20531;-54
2023/09/15 04:26:27;;;;;;;27.13;16.40;;;19.00;99.90;;;;;;5012559;28;20048;-56
2023/09/15 04:29:30;;;;;;;20.75;15.95;;;18.90;99.90;;;;;;5011421;28;20041;-57
2023/09/15 04:32:35;;;;;;;27.50;17.92;;;18.80;99.90;;;;;;5013006;28;20045;-56
2023/09/15 04:35:39;;;;;;;28.80;19.52;;;18.70;99.90;;;;;;5011392;28;20037;-54
2023/09/15 04:38:43;;;;;;;34.40;21.38;;;18.70;99.90;;;;;;5011503;28;20061;-55
2023/09/15 04:41:48;;;;;;;28.67;20.83;;;18.60;99.90;;;;;;5004419;28;20041;-57
2023/09/15 04:44:52;;;;;;;26.88;19.20;;;18.60;99.90;;;;;;5009967;28;20511;-56
2023/09/15 04:47:56;;;;;;;27.50;19.77;;;18.60;99.90;;;;;;5008810;28;20065;-58
2023/09/15 04:51:02;;;;;;;31.52;19.85;;;18.60;99.90;;;;;;5006079;28;20045;-54
2023/09/15 04:54:06;;;;;;;29.65;20.40;;;18.60;99.90;;;;;;5010725;28;20431;-57
2023/09/15 04:57:10;;;;;;;26.83;20.35;;;18.60;99.90;;;;;;5012140;28;20056;-58
2023/09/15 05:00:23;;;;;;;26.15;20.13;;;18.70;99.90;;;;;;5007453;28;20053;-58
2023/09/15 05:03:29;;;;;;;26.67;19.55;;;18.70;99.90;;;;;;5010488;28;20057;-54
2023/09/15 05:06:33;;;;;;;29.70;20.42;;;18.70;99.90;;;;;;5010722;28;20068;-53
2023/09/15 05:09:37;;;;;;;28.25;20.58;;;18.70;99.90;;;;;;5010498;28;20037;-55
2023/09/15 05:12:42;;;;;;;26.38;19.45;;;18.70;99.90;;;;;;5010822;28;20041;-55
2023/09/15 05:15:46;;;;;;;27.45;18.65;;;18.60;99.90;;;;;;5010560;28;20049;-59
2023/09/15 05:18:51;;;;;;;24.70;19.45;;;18.60;99.90;;;;;;5015480;28;20053;-56
2023/09/15 05:21:55;;;;;;;31.92;20.02;;;18.60;99.90;;;;;;5010853;28;20040;-55
2023/09/15 05:25:04;;;;;;;28.33;19.23;;;18.50;99.90;;;;;;5005899;28;20421;-56
2023/09/15 05:28:09;;;;;;;31.30;19.50;;;18.50;99.90;;;;;;5017354;28;20061;-55
2023/09/15 05:31:13;;;;;;;31.30;19.20;;;18.50;99.90;;;;;;5011270;28;20045;-53
2023/09/15 05:34:17;;;;;;;31.05;21.27;;;18.60;99.90;;;;;;4999856;28;20132;-56
2023/09/15 05:37:21;;;;;;;36.78;21.73;;;18.60;99.90;;;;;;4997712;28;20532;-57
2023/09/15 05:40:25;;;;;;;26.55;19.85;;;18.70;99.90;;;;;;5006257;28;20054;-54
2023/09/15 05:43:29;;;;;;;25.50;17.45;;;18.80;99.90;;;;;;5000399;28;20279;-54
2023/09/15 05:46:33;;;;;;;27.30;17.95;;;19.00;99.90;;;;;;5009421;28;20148;-54
2023/09/15 05:49:37;;;;;;;24.00;17.60;;;19.30;99.90;;;;;;5007823;28;20049;-55
2023/09/15 05:52:41;;;;;;;24.80;17.33;;;19.50;99.90;;;;;;5009844;28;20057;-55
2023/09/15 05:55:45;;;;;;;24.05;17.30;;;19.70;99.90;;;;;;5002661;28;20037;-54
2023/09/15 05:58:49;;;;;;;24.55;17.05;;;20.00;99.90;;;;;;5004963;28;20037;-54
2023/09/15 06:01:53;;;;;;;21.30;16.45;;;20.30;99.90;;;;;;5002772;28;20036;-54
2023/09/15 06:04:57;;;;;;;24.50;15.75;;;20.40;99.90;;;;;;4999854;28;20061;-57
2023/09/15 06:08:03;;;;;;;20.70;16.40;;;20.40;99.90;;;;;;5004505;28;20401;-57
2023/09/15 06:11:07;;;;;;;19.95;15.43;;;20.40;99.90;;;;;;5007318;28;20041;-54
2023/09/15 06:14:11;;;;;;;24.55;14.32;;;20.80;99.90;;;;;;5009306;28;20045;-56
2023/09/15 06:17:15;;;;;;;18.80;13.52;;;22.70;99.90;;;;;;5010291;28;20061;-58
2023/09/15 06:20:18;;;;;;;17.75;10.52;;;25.00;99.90;;;;;;5000226;28;20041;-58
2023/09/15 06:23:24;;;;;;;17.30;10.50;;;26.50;99.90;;;;;;5007044;28;20599;-56
2023/09/15 06:26:28;;;;;;;11.68;7.78;;;27.50;99.90;;;;;;5002670;28;20057;-56
2023/09/15 06:29:32;;;;;;;11.73;7.65;;;27.90;99.90;;;;;;5008076;28;20045;-56
2023/09/15 06:32:36;;;;;;;10.02;7.07;;;27.70;99.90;;;;;;5007908;28;20057;-56
2023/09/15 06:35:40;;;;;;;11.63;7.18;;;28.70;99.90;;;;;;5009935;28;20044;-58
2023/09/15 06:38:44;;;;;;;10.48;7.15;;;29.40;99.90;;;;;;5003561;28;20033;-57
2023/09/15 06:41:49;;;;;;;14.55;6.88;;;29.80;99.90;;;;;;5002651;28;20037;-54
2023/09/15 06:44:59;;;;;;;12.05;7.30;;;30.60;99.90;;;;;;5017590;28;20424;-57
2023/09/15 06:48:04;;;;;;;8.18;6.35;;;30.10;99.90;;;;;;5002051;28;20045;-53
2023/09/15 06:51:08;;;;;;;12.30;6.63;;;30.60;99.90;;;;;;5000200;28;20041;-57
2023/09/15 06:54:12;;;;;;;7.35;5.88;;;31.50;99.90;;;;;;5002034;28;20045;-58
2023/09/15 06:57:16;;;;;;;12.13;6.80;;;32.00;99.90;;;;;;4995329;28;20037;-57
2023/09/15 07:00:20;;;;;;;10.77;5.95;;;31.00;99.90;;;;;;5002889;28;20045;-57
2023/09/15 07:03:26;;;;;;;10.57;6.00;;;30.60;99.90;;;;;;5002884;28;20045;-57
2023/09/15 07:06:30;;;;;;;11.30;6.35;;;30.70;99.90;;;;;;5004420;28;20049;-58
2023/09/15 07:09:34;;;;;;;9.90;6.25;;;30.60;99.90;;;;;;5008832;28;20064;-58
2023/09/15 07:12:37;;;;;;;9.65;6.28;;;29.50;99.90;;;;;;5008063;28;20420;-56
2023/09/15 07:15:41;;;;;;;10.77;6.65;;;29.50;99.90;;;;;;5012713;28;21518;-55
2023/09/15 07:18:45;;;;;;;9.98;5.50;;;29.90;99.90;;;;;;5000947;28;20048;-57
2023/09/15 07:21:49;;;;;;;8.23;5.53;;;31.50;99.90;;;;;;5005713;28;20057;-58
2023/09/15 07:24:53;;;;;;;6.65;4.22;;;32.90;99.90;;;;;;5004941;28;20056;-58
2023/09/15 07:27:58;;;;;;;6.75;4.22;;;34.40;98.60;;;;;;5005497;28;20049;-57
2023/09/15 07:31:03;;;;;;;9.10;4.28;;;35.00;97.10;;;;;;5005565;28;20045;-56
2023/09/15 07:34:08;;;;;;;12.45;5.13;;;35.90;95.70;;;;;;5004671;28;20688;-56
2023/09/15 07:37:12;;;;;;;7.55;4.50;;;36.80;94.20;;;;;;5007249;28;20053;-58
2023/09/15 07:40:18;;;;;;;8.50;4.22;;;37.60;93.60;;;;;;5002043;28;20405;-58
2023/09/15 07:43:22;;;;;;;5.80;3.80;;;37.80;92.10;;;;;;5009379;28;20049;-56
2023/09/15 07:46:26;;;;;;;5.82;3.60;;;37.50;91.40;;;;;;5005715;28;20061;-55
2023/09/15 07:49:30;;;;;;;5.45;3.60;;;37.20;91.20;;;;;;5005751;28;20044;-56
2023/09/15 07:52:34;;;;;;;8.95;4.18;;;36.30;92.10;;;;;;5008616;28;20518;-57
2023/09/15 07:55:38;;;;;;;9.13;4.40;;;36.90;91.30;;;;;;5007893;28;21959;-57
2023/09/15 07:58:43;;;;;;;8.55;3.97;;;35.90;91.80;;;;;;5005098;28;20041;-56
2023/09/15 08:01:47;;;;;;;8.15;3.95;;;36.30;91.80;;;;;;5006846;28;20061;-56
2023/09/15 08:04:51;;;;;;;5.90;3.38;;;36.70;91.00;;;;;;5005566;28;20519;-57
2023/09/15 08:07:55;;;;;;;8.43;4.55;;;37.90;90.90;;;;;;5002444;28;20049;-54
2023/09/15 08:10:59;;;;;;;7.65;3.90;;;35.90;90.80;;;;;;5002295;28;20045;-55
2023/09/15 08:14:03;;;;;;;6.63;3.90;;;35.40;91.60;;;;;;5006939;28;20057;-56
2023/09/15 08:17:08;;;;;;;7.50;4.10;;;36.00;91.60;;;;;;5006874;28;20068;-53
2023/09/15 08:20:13;;;;;;;10.48;4.75;;;34.50;92.20;;;;;;5004413;28;20052;-57
2023/09/15 08:23:17;;;;;;;7.40;4.20;;;36.20;91.60;;;;;;5008938;28;20049;-57
2023/09/15 08:26:21;;;;;;;5.07;3.47;;;34.00;92.80;;;;;;5003885;28;20118;-56
2023/09/15 08:29:25;;;;;;;7.40;3.38;;;35.50;92.60;;;;;;5006351;28;20049;-58
2023/09/15 08:32:31;;;;;;;6.50;3.28;;;37.80;90.60;;;;;;4994042;28;20049;-57
2023/09/15 08:35:35;;;;;;;5.70;3.20;;;38.60;88.80;;;;;;4998292;28;20990;-58
2023/09/15 08:38:39;;;;;;;4.88;2.72;;;39.40;87.10;;;;;;5006663;28;20130;-56
2023/09/15 08:41:51;;;;;;;7.90;2.90;;;40.10;85.20;;;;;;5008589;28;20122;-58
2023/09/15 08:44:56;;;;;;;4.07;2.95;;;40.60;82.50;;;;;;5003042;28;20076;-58
2023/09/15 08:48:04;;;;;;;5.82;2.75;;;41.00;82.60;;;;;;5002365;28;20045;-57
2023/09/15 08:51:09;;;;;;;4.13;2.75;;;42.20;81.20;;;;;;5000916;28;20036;-56
2023/09/15 08:54:14;;;;;;;6.03;3.00;;;42.00;77.60;;;;;;5009123;28;20044;-58
2023/09/15 08:57:18;;;;;;;8.00;3.15;;;40.60;79.50;;;;;;5004659;28;20045;-56
2023/09/15 09:00:23;;;;;;;5.20;3.13;;;37.00;81.20;;;;;;5001366;28;20046;-57
2023/09/15 09:03:27;;;;;;;6.90;3.50;;;35.40;84.90;;;;;;5006837;28;20049;-55
2023/09/15 09:06:34;;;;;;;12.38;3.40;;;36.50;84.60;;;;;;5008149;28;20051;-57
2023/09/15 09:09:41;;;;;;;3.97;2.42;;;38.40;83.10;;;;;;5006616;28;20037;-58
2023/09/15 09:12:45;;;;;;;6.28;3.08;;;40.30;81.40;;;;;;5010200;28;20049;-58
2023/09/15 09:15:51;;;;;;;6.25;3.00;;;40.90;77.60;;;;;;5010978;28;20621;-57
2023/09/15 09:19:00;;;;;;;10.07;3.28;;;39.30;78.10;;;;;;5005219;28;20049;-56
2023/09/15 09:22:07;;;;;;;7.78;2.63;;;37.50;81.80;;;;;;5007578;28;20133;-57
2023/09/15 09:25:10;;;;;;;4.68;3.05;;;39.70;80.80;;;;;;5004991;28;20049;-58
2023/09/15 09:28:15;;;;;;;6.00;2.50;;;40.00;78.00;;;;;;4999870;28;20044;-58
2023/09/15 09:31:21;;;;;;;5.22;2.85;;;38.80;76.10;;;;;;5007151;28;20049;-55
2023/09/15 09:34:25;;;;;;;5.07;2.80;;;36.80;79.80;;;;;;5008776;28;20515;-56
2023/09/15 09:37:30;;;;;;;6.20;2.50;;;37.80;79.20;;;;;;5004759;28;20049;-58
2023/09/15 09:40:36;;;;;;;4.57;2.28;;;39.50;77.70;;;;;;5004195;28;20045;-57
2023/09/15 09:43:42;;;;;;;6.68;2.40;;;38.60;77.10;;;;;;5000907;28;20049;-57
2023/09/15 09:46:46;;;;;;;8.40;2.50;;;37.50;79.60;;;;;;4998544;28;20041;-54
2023/09/15 09:49:52;;;;;;;7.82;2.47;;;38.40;79.40;;;;;;5004395;28;20041;-55
2023/09/15 09:52:55;;;;;;;3.72;2.35;;;39.00;78.30;;;;;;5000647;28;20064;-56
2023/09/15 09:56:04;;;;;;;4.78;2.70;;;39.90;77.90;;;;;;5004033;28;20049;-57
2023/09/15 09:59:10;;;;;;;4.60;2.38;;;41.00;75.10;;;;;;5001773;28;20045;-57
2023/09/15 10:02:13;;;;;;;5.88;2.35;;;41.60;74.80;;;;;;4997200;28;20049;-56
2023/09/15 10:05:18;;;;;;;3.55;1.92;;;41.90;73.30;;;;;;5003175;28;20052;-58
2023/09/15 10:08:22;;;;;;;3.13;1.92;;;43.90;72.30;;;;;;5002019;28;20045;-58
2023/09/15 10:11:27;;;;;;;5.03;2.13;;;42.40;72.10;;;;;;5003070;28;20433;-58
2023/09/15 10:14:31;;;;;;;4.97;2.10;;;43.20;71.80;;;;;;5006765;28;20595;-58
2023/09/15 10:17:35;;;;;;;7.00;2.00;;;41.20;73.00;;;;;;5004703;28;20049;-57
2023/09/15 10:20:41;;;;;;;3.72;2.55;;;41.30;73.60;;;;;;5009002;28;20049;-58
2023/09/15 10:23:45;;;;;;;6.60;2.70;;;41.00;73.10;;;;;;5006130;28;20566;-57
2023/09/15 10:26:50;;;;;;;6.30;2.22;;;42.60;72.40;;;;;;5003290;28;20094;-57
2023/09/15 10:30:00;;;;;;;5.07;2.58;;;38.60;73.30;;;;;;5002039;28;20041;-55
2023/09/15 10:33:09;;;;;;;5.05;2.30;;;40.00;73.70;;;;;;5006610;28;20045;-56
2023/09/15 10:36:15;;;;;;;6.75;2.30;;;42.20;71.90;;;;;;5003138;28;20057;-55
2023/09/15 10:39:19;;;;;;;2.67;2.22;;;42.10;72.00;;;;;;5003360;28;20052;-57
2023/09/15 10:42:24;;;;;;;4.07;2.28;;;43.90;70.40;;;;;;5007285;28;20061;-57
2023/09/15 10:45:28;;;;;;;3.58;2.30;;;44.20;68.80;;;;;;5006234;28;20045;-56
2023/09/15 10:48:44;;;;;;;6.22;2.47;;;43.30;69.60;;;;;;5005805;28;20049;-57
2023/09/15 10:51:52;;;;;;;5.78;2.10;;;45.30;68.60;;;;;;5005705;28;20053;-58
2023/09/15 10:54:56;;;;;;;3.93;2.30;;;47.00;66.90;;;;;;5009264;28;20045;-57
2023/09/15 10:58:04;;;;;;;5.55;2.50;;;44.70;65.70;;;;;;5010192;28;20543;-58
2023/09/15 11:01:10;;;;;;;5.72;2.17;;;46.10;66.10;;;;;;5013328;28;20063;-57
2023/09/15 11:04:20;;;;;;;3.58;2.25;;;47.30;65.00;;;;;;5009455;28;20045;-56
2023/09/15 11:07:25;;;;;;;6.90;2.53;;;42.40;66.20;;;;;;5001870;28;20077;-53
2023/09/15 11:10:34;;;;;;;5.65;2.70;;;39.70;68.60;;;;;;5006907;28;20041;-57
2023/09/15 11:13:40;;;;;;;3.63;2.23;;;42.30;68.40;;;;;;5010062;28;20043;-57
2023/09/15 11:16:49;;;;;;;5.10;2.33;;;44.50;67.30;;;;;;5008868;28;20303;-57
2023/09/15 11:19:53;;;;;;;3.80;2.22;;;45.30;65.40;;;;;;5008316;28;20053;-57
2023/09/15 11:22:57;;;;;;;4.93;2.42;;;45.60;64.20;;;;;;5007168;28;20049;-58
2023/09/15 11:26:03;;;;;;;3.65;1.92;;;46.40;64.70;;;;;;5005278;28;20045;-57
2023/09/15 11:29:08;;;;;;;5.68;2.15;;;48.00;63.10;;;;;;5003658;28;20049;-58
2023/09/15 11:32:12;;;;;;;6.90;2.70;;;48.10;62.40;;;;;;5001958;28;20045;-58
2023/09/15 11:35:18;;;;;;;6.78;2.25;;;48.70;61.80;;;;;;5004641;28;20058;-56
2023/09/15 11:38:23;;;;;;;2.60;2.13;;;49.50;60.60;;;;;;5006543;28;20052;-58
2023/09/15 11:41:35;;;;;;;4.18;1.95;;;49.60;59.50;;;;;;5004906;28;20436;-58
2023/09/15 11:44:39;;;;;;;5.72;2.17;;;49.50;58.60;;;;;;5004857;28;20139;-56
2023/09/15 11:47:46;;;;;;;3.67;2.35;;;46.40;59.80;;;;;;5005893;28;20053;-57
2023/09/15 11:50:50;;;;;;;5.00;2.40;;;44.70;61.80;;;;;;5006542;28;20045;-57
2023/09/15 11:53:58;;;;;;;7.50;2.58;;;39.50;64.70;;;;;;5004676;28;20045;-57
2023/09/15 11:57:03;;;;;;;3.83;2.50;;;38.70;67.20;;;;;;5010588;28;20041;-57
2023/09/15 12:00:08;;;;;;;5.90;3.17;;;40.30;65.50;;;;;;5008511;28;20129;-57
2023/09/15 12:03:18;;;;;;;6.50;2.55;;;40.00;65.80;;;;;;5002512;28;20041;-56
2023/09/15 12:06:22;;;;;;;5.35;2.72;;;41.20;65.50;;;;;;5008482;28;20045;-57
2023/09/15 12:09:26;;;;;;;5.75;2.50;;;43.00;63.50;;;;;;5008101;28;20519;-57
2023/09/15 12:12:30;;;;;;;8.43;2.45;;;43.60;62.70;;;;;;5007013;28;20033;-57
2023/09/15 12:15:34;;;;;;;4.53;2.40;;;44.70;61.90;;;;;;5003241;28;20049;-57
2023/09/15 12:18:38;;;;;;;5.68;2.60;;;44.80;61.00;;;;;;5002155;28;20233;-57
2023/09/15 12:21:50;;;;;;;5.70;2.20;;;43.70;61.60;;;;;;5001713;28;20045;-55
2023/09/15 12:24:55;;;;;;;6.00;2.67;;;39.60;62.90;;;;;;5005480;28;20045;-55
2023/09/15 12:28:00;;;;;;;4.22;2.30;;;40.00;64.00;;;;;;5006683;28;20061;-57
2023/09/15 12:31:04;;;;;;;5.05;2.78;;;41.20;64.00;;;;;;5003585;28;20045;-55
2023/09/15 12:34:08;;;;;;;6.95;2.30;;;41.10;64.10;;;;;;5006483;28;20511;-56
2023/09/15 12:37:12;;;;;;;7.60;2.40;;;40.60;64.20;;;;;;5005887;28;20041;-54
2023/09/15 12:40:16;;;;;;;6.07;2.53;;;39.60;64.00;;;;;;5006150;28;20044;-55
2023/09/15 12:43:20;;;;;;;4.65;2.38;;;42.00;63.30;;;;;;5002640;28;20058;-56
2023/09/15 12:46:24;;;;;;;3.47;2.20;;;43.60;61.70;;;;;;5005567;28;20045;-57
2023/09/15 12:49:28;;;;;;;6.05;2.72;;;39.80;63.20;;;;;;5011450;28;20061;-55
2023/09/15 12:52:35;;;;;;;3.75;2.30;;;39.80;63.00;;;;;;5011661;28;20041;-56
2023/09/15 12:55:39;;;;;;;4.45;2.58;;;41.70;62.30;;;;;;5006464;28;20037;-57
2023/09/15 12:58:43;;;;;;;5.68;2.80;;;41.80;62.50;;;;;;5009694;28;20045;-58
2023/09/15 13:01:47;;;;;;;5.20;1.75;;;43.30;62.20;;;;;;5011679;28;20041;-57
2023/09/15 13:04:51;;;;;;;6.15;1.95;;;44.90;61.60;;;;;;5003526;28;20049;-54
2023/09/15 13:07:55;;;;;;;3.17;2.20;;;42.60;61.50;;;;;;5008526;28;20427;-56
2023/09/15 13:10:58;;;;;;;4.22;2.47;;;42.10;63.10;;;;;;5008864;28;20041;-54
2023/09/15 13:14:03;;;;;;;5.10;2.72;;;41.70;63.10;;;;;;5002714;28;20038;-57
2023/09/15 13:17:07;;;;;;;2.83;2.40;;;40.00;64.30;;;;;;5010470;28;20045;-57
2023/09/15 13:20:13;;;;;;;6.78;2.60;;;39.10;66.20;;;;;;5003595;28;20041;-56
2023/09/15 13:23:17;;;;;;;5.97;3.03;;;38.40;66.60;;;;;;5004814;28;20033;-52
2023/09/15 13:26:21;;;;;;;5.13;2.78;;;37.60;68.10;;;;;;5007102;28;20069;-54
2023/09/15 13:29:26;;;;;;;7.38;3.00;;;36.80;69.30;;;;;;5007040;28;20041;-55
2023/09/15 13:32:31;;;;;;;3.70;2.78;;;37.90;68.70;;;;;;5008178;28;20048;-56
2023/09/15 13:35:35;;;;;;;4.50;2.80;;;39.60;66.40;;;;;;5003335;28;20040;-57
2023/09/15 13:38:40;;;;;;;5.55;2.88;;;40.30;65.10;;;;;;5009935;28;20037;-57
2023/09/15 13:41:44;;;;;;;8.25;3.17;;;39.90;65.00;;;;;;5004809;28;20092;-57
2023/09/15 13:44:48;;;;;;;10.98;3.08;;;39.00;65.90;;;;;;5007845;28;20044;-56
2023/09/15 13:47:52;;;;;;;6.88;2.80;;;38.10;67.00;;;;;;5001784;28;20044;-57
2023/09/15 13:50:56;;;;;;;6.30;2.70;;;37.60;67.90;;;;;;5008762;28;20044;-56
2023/09/15 13:54:00;;;;;;;5.68;2.95;;;36.80;68.70;;;;;;5007424;28;20036;-56
2023/09/15 13:57:05;;;;;;;6.65;3.10;;;36.30;69.70;;;;;;5000128;28;20045;-57
2023/09/15 14:00:09;;;;;;;4.43;2.67;;;35.70;70.20;;;;;;5005256;28;20487;-57
2023/09/15 14:03:14;;;;;;;8.32;2.88;;;35.40;71.30;;;;;;5005977;28;20065;-59
2023/09/15 14:06:19;;;;;;;4.38;2.72;;;34.90;70.70;;;;;;5005859;28;20393;-57
2023/09/15 14:09:23;;;;;;;4.65;3.40;;;33.50;72.50;;;;;;5007141;28;20045;-54
2023/09/15 14:12:28;;;;;;;4.05;3.10;;;32.80;74.30;;;;;;5010816;28;20041;-55
2023/09/15 14:15:32;;;;;;;5.75;3.25;;;33.10;74.50;;;;;;5002133;28;20041;-58
2023/09/15 14:18:36;;;;;;;3.92;3.08;;;33.30;73.90;;;;;;5013224;28;20049;-58
2023/09/15 14:21:40;;;;;;;4.88;3.20;;;33.00;74.40;;;;;;5008836;28;20052;-58
2023/09/15 14:24:44;;;;;;;7.72;3.05;;;32.50;75.80;;;;;;5008672;28;20041;-56
2023/09/15 14:27:48;;;;;;;6.38;2.83;;;30.30;80.00;;;;;;5012054;28;20436;-56
2023/09/15 14:30:52;;;;;;;8.35;2.70;;;29.40;82.80;;;;;;5010843;28;20488;-58
2023/09/15 14:33:57;;;;;;;6.47;2.67;;;28.80;83.70;;;;;;5008673;28;20041;-58
2023/09/15 14:37:01;;;;;;;3.97;2.25;;;28.80;85.00;;;;;;5012112;28;20045;-58
2023/09/15 14:40:05;;;;;;;7.70;2.63;;;29.60;84.70;;;;;;5010354;28;20041;-56
2023/09/15 14:43:09;;;;;;;18.77;3.40;;;29.80;83.20;;;;;;5012565;28;20040;-55
2023/09/15 14:46:13;;;;;;;4.68;2.63;;;29.30;84.60;;;;;;5011805;28;20408;-58
2023/09/15 14:49:18;;;;;;;9.95;3.13;;;28.00;88.10;;;;;;5007546;28;20041;-58
2023/09/15 14:52:22;;;;;;;6.75;3.20;;;27.70;90.10;;;;;;5007773;28;20049;-56
2023/09/15 14:55:26;;;;;;;4.95;2.97;;;27.00;91.80;;;;;;5008287;28;20041;-56
2023/09/15 14:58:30;;;;;;;5.57;2.85;;;26.40;94.00;;;;;;5007872;28;20045;-57
2023/09/15 15:01:34;;;;;;;12.90;3.20;;;26.20;95.50;;;;;;5008218;28;20049;-56
2023/09/15 15:04:39;;;;;;;7.38;3.13;;;25.20;98.40;;;;;;5005271;28;20049;-53
2023/09/15 15:07:43;;;;;;;7.00;2.78;;;25.00;99.90;;;;;;5011257;28;20041;-56
2023/09/15 15:10:47;;;;;;;9.07;2.80;;;25.10;99.90;;;;;;5004536;28;20045;-56
2023/09/15 15:13:51;;;;;;;7.53;2.63;;;25.50;99.90;;;;;;5009825;28;20539;-56
2023/09/15 15:16:57;;;;;;;7.38;2.70;;;25.70;99.90;;;;;;5004185;28;20049;-57
2023/09/15 15:20:01;;;;;;;11.63;3.03;;;25.40;99.90;;;;;;5003003;28;20049;-57
2023/09/15 15:23:05;;;;;;;6.13;2.80;;;25.30;99.90;;;;;;5011513;28;20051;-57
2023/09/15 15:26:09;;;;;;;8.38;2.60;;;24.00;99.90;;;;;;5009993;28;20076;-56
2023/09/15 15:29:13;;;;;;;4.10;2.65;;;24.00;99.90;;;;;;5002719;28;20045;-56
2023/09/15 15:32:19;;;;;;;9.45;3.13;;;24.10;99.90;;;;;;5009160;28;20037;-57
2023/09/15 15:35:25;;;;;;;5.53;2.88;;;24.10;99.90;;;;;;5008158;28;20507;-56
2023/09/15 15:38:29;;;;;;;7.05;2.80;;;23.40;99.90;;;;;;5009709;28;20052;-57
2023/09/15 15:41:33;;;;;;;9.43;3.03;;;23.60;99.90;;;;;;5013370;28;20040;-58
2023/09/15 15:44:37;;;;;;;7.30;3.00;;;23.80;99.90;;;;;;5010026;28;20511;-57
2023/09/15 15:47:41;;;;;;;5.63;2.58;;;23.90;99.90;;;;;;5010486;28;20040;-53
2023/09/15 15:50:46;;;;;;;6.47;2.50;;;24.10;99.90;;;;;;5012232;28;20041;-57